createdAt,value
2022-11-05T00:00:38.199Z,5.80
2022-11-05T00:05:58.605Z,7.22
2022-11-05T00:11:01.022Z,3.00
2022-11-05T00:16:21.393Z,4.53
2022-11-05T00:21:46.527Z,2.30
2022-11-05T00:26:49.866Z,3.10
2022-11-05T00:31:52.383Z,2.83
2022-11-05T00:36:56.809Z,2.10
2022-11-05T00:42:19.669Z,3.10
2022-11-05T00:47:43.600Z,3.08
2022-11-05T00:52:56.671Z,2.03
2022-11-05T00:58:12.928Z,3.60
2022-11-05T01:03:19.634Z,3.90
2022-11-05T01:08:25.366Z,2.50
2022-11-05T01:13:30.410Z,4.45
2022-11-05T01:18:34.752Z,4.88
2022-11-05T01:23:48.442Z,2.25
2022-11-05T01:28:52.487Z,2.72
2022-11-05T01:33:56.428Z,3.25
2022-11-05T01:39:02.040Z,4.18
2022-11-05T01:44:04.243Z,4.55
2022-11-05T01:49:16.698Z,3.20
2022-11-05T01:54:24.118Z,4.07
2022-11-05T01:59:36.717Z,4.82
2022-11-05T02:10:52.404Z,5.32
2022-11-05T02:16:18.716Z,4.28
2022-11-05T02:21:23.353Z,3.70
2022-11-05T02:26:35.021Z,5.25
2022-11-05T02:32:20.857Z,2.67
2022-11-05T02:37:48.930Z,3.47
2022-11-05T02:43:04.672Z,4.60
2022-11-05T02:48:37.179Z,3.00
2022-11-05T02:53:56.087Z,3.28
2022-11-05T02:58:58.355Z,2.50
2022-11-05T03:04:02.189Z,3.47
2022-11-05T03:09:30.867Z,4.32
2022-11-05T03:15:03.450Z,4.13
2022-11-05T03:20:25.856Z,5.70
2022-11-05T03:25:30.579Z,2.92
2022-11-05T03:30:35.697Z,2.55
2022-11-05T03:35:54.625Z,3.00
2022-11-05T03:41:01.648Z,2.38
2022-11-05T03:46:21.569Z,5.07
2022-11-05T03:51:42.673Z,3.92
2022-11-05T03:57:18.613Z,2.70
2022-11-05T04:02:30.646Z,3.13
2022-11-05T04:07:56.712Z,6.57
2022-11-05T04:13:20.478Z,3.40
2022-11-05T04:18:25.822Z,4.28
2022-11-05T04:23:49.674Z,2.90
2022-11-05T04:29:11.699Z,4.30
2022-11-05T04:34:22.268Z,4.43
2022-11-05T04:39:28.110Z,5.80
2022-11-05T04:44:44.159Z,2.42
2022-11-05T04:49:48.031Z,5.07
2022-11-05T04:54:49.940Z,4.13
2022-11-05T04:59:53.946Z,3.95
2022-11-05T05:04:58.391Z,3.85
2022-11-05T05:10:01.930Z,4.50
2022-11-05T05:15:07.053Z,5.20
2022-11-05T05:20:35.001Z,4.50
2022-11-05T05:25:41.906Z,5.15
2022-11-05T05:30:53.597Z,5.63
2022-11-05T05:36:11.508Z,6.10
2022-11-05T05:41:14.245Z,4.47
2022-11-05T05:46:25.882Z,5.53
2022-11-05T05:51:30.290Z,5.13
2022-11-05T06:01:53.021Z,3.95
2022-11-05T06:06:55.988Z,4.22
2022-11-05T06:12:04.333Z,3.78
2022-11-05T06:17:11.040Z,6.40
2022-11-05T06:22:18.724Z,6.18
2022-11-05T06:27:34.883Z,4.88
2022-11-05T06:32:40.129Z,4.07
2022-11-05T06:37:45.603Z,3.05
2022-11-05T06:42:54.140Z,4.45
2022-11-05T06:48:00.894Z,5.68
2022-11-05T06:53:05.522Z,6.68
2022-11-05T06:58:10.052Z,4.95
2022-11-05T07:03:13.939Z,3.15
2022-11-05T07:08:19.739Z,7.05
2022-11-05T07:13:27.679Z,6.25
2022-11-05T07:18:32.393Z,5.25
2022-11-05T07:23:37.090Z,4.95
2022-11-05T07:28:41.330Z,3.60
2022-11-05T07:33:43.260Z,3.53
2022-11-05T07:38:48.998Z,2.88
2022-11-05T07:43:59.714Z,3.58
2022-11-05T07:49:09.699Z,5.47
2022-11-05T07:54:14.198Z,6.13
2022-11-05T07:59:19.022Z,3.80
2022-11-05T08:04:21.632Z,3.83
2022-11-05T08:09:32.579Z,3.63
2022-11-05T08:14:40.608Z,4.70
2022-11-05T08:19:45.758Z,3.17
2022-11-05T08:24:49.467Z,6.90
2022-11-05T08:29:53.131Z,4.35
2022-11-05T08:34:55.730Z,3.70
2022-11-05T08:40:02.000Z,3.00
2022-11-05T08:45:09.608Z,4.80
2022-11-05T08:50:12.839Z,9.38
2022-11-05T08:55:19.435Z,3.60
2022-11-05T09:00:28.218Z,5.10
2022-11-05T09:05:37.991Z,5.53
2022-11-05T09:10:42.099Z,7.50
2022-11-05T09:15:52.261Z,3.65
2022-11-05T09:21:01.131Z,3.97
2022-11-05T09:26:03.338Z,4.30
2022-11-05T09:31:17.784Z,8.30
2022-11-05T09:36:22.553Z,4.13
2022-11-05T09:41:57.841Z,4.00
2022-11-05T09:52:49.766Z,4.15
2022-11-05T10:03:35.272Z,7.88
2022-11-05T10:08:44.147Z,6.53
2022-11-05T10:13:50.761Z,7.13
2022-11-05T10:19:04.870Z,6.07
2022-11-05T10:24:20.360Z,2.97
2022-11-05T10:29:34.617Z,4.82
2022-11-05T10:34:45.025Z,4.03
2022-11-05T10:39:49.160Z,4.75
2022-11-05T10:45:29.642Z,3.60
2022-11-05T10:50:40.574Z,4.38
2022-11-05T10:55:49.120Z,3.87
2022-11-05T11:01:08.661Z,5.90
2022-11-05T11:06:32.606Z,6.82
2022-11-05T11:11:43.865Z,5.03
2022-11-05T11:16:50.830Z,4.32
2022-11-05T11:22:11.523Z,2.97
2022-11-05T11:27:39.593Z,4.45
2022-11-05T11:32:46.297Z,5.72
2022-11-05T11:37:57.032Z,1.77
2022-11-05T11:43:30.822Z,7.70
2022-11-05T11:48:36.197Z,5.68
2022-11-05T11:53:52.430Z,4.18
2022-11-05T11:58:57.857Z,3.53
2022-11-05T12:04:21.822Z,5.03
2022-11-05T12:10:00.260Z,5.40
2022-11-05T12:15:40.660Z,6.82
2022-11-05T12:21:15.409Z,6.05
2022-11-05T12:26:45.471Z,4.35
2022-11-05T12:32:03.850Z,6.55
2022-11-05T12:37:34.856Z,8.07
2022-11-05T12:43:11.452Z,6.28
2022-11-05T12:48:41.200Z,5.43
2022-11-05T12:54:08.147Z,6.13
2022-11-05T12:59:45.348Z,2.67
2022-11-05T13:05:01.161Z,5.10
2022-11-05T13:10:16.471Z,6.13
2022-11-05T13:15:29.636Z,7.03
2022-11-05T13:25:50.321Z,7.68
2022-11-05T13:31:10.084Z,4.88
2022-11-05T13:36:48.385Z,5.15
2022-11-05T13:42:28.695Z,3.08
2022-11-05T13:48:23.067Z,3.42
2022-11-05T13:53:58.323Z,4.57
2022-11-05T13:59:31.671Z,7.43
2022-11-05T14:05:10.255Z,5.13
2022-11-05T14:10:40.471Z,3.75
2022-11-05T14:16:20.478Z,5.65
2022-11-05T14:21:29.662Z,3.53
2022-11-05T14:26:34.399Z,6.72
2022-11-05T14:32:11.535Z,5.60
2022-11-05T14:37:13.599Z,8.45
2022-11-05T14:42:31.730Z,7.70
2022-11-05T14:47:53.654Z,5.45
2022-11-05T14:53:09.169Z,4.07
2022-11-05T14:58:40.644Z,3.45
2022-11-05T15:04:19.790Z,5.55
2022-11-05T15:09:36.381Z,2.92
2022-11-05T15:15:03.644Z,4.45
2022-11-05T15:20:21.810Z,6.03
2022-11-05T15:25:54.317Z,4.65
2022-11-05T15:36:35.142Z,4.75
2022-11-05T15:41:39.812Z,2.58
2022-11-05T15:46:43.520Z,3.58
2022-11-05T15:51:50.184Z,5.00
2022-11-05T15:56:57.034Z,8.13
2022-11-05T16:02:29.409Z,4.53
2022-11-05T16:07:36.365Z,2.88
2022-11-05T16:12:40.688Z,3.28
2022-11-05T16:17:49.581Z,3.75
2022-11-05T16:22:59.397Z,4.90
2022-11-05T16:28:07.646Z,5.75
2022-11-05T16:33:19.728Z,3.92
2022-11-05T16:38:26.446Z,3.53
2022-11-05T16:48:48.400Z,6.22
2022-11-05T16:54:16.829Z,8.88
2022-11-05T16:59:23.248Z,5.53
2022-11-05T17:04:26.811Z,2.95
2022-11-05T17:09:45.519Z,3.80
2022-11-05T17:14:49.305Z,3.85
2022-11-05T17:19:51.183Z,2.90
2022-11-05T17:25:00.654Z,5.53
2022-11-05T17:30:10.668Z,8.68
2022-11-05T17:35:14.409Z,4.22
2022-11-05T17:40:30.670Z,3.63
2022-11-05T17:45:41.174Z,4.68
2022-11-05T17:50:53.813Z,9.13
2022-11-05T17:56:03.145Z,5.32
2022-11-05T18:01:08.650Z,6.72
2022-11-05T18:06:13.971Z,4.55
2022-11-05T18:11:15.880Z,3.92
2022-11-05T18:21:26.268Z,6.25
2022-11-05T18:26:32.142Z,5.80
2022-11-05T18:32:01.512Z,8.50
2022-11-05T18:37:08.412Z,8.75
2022-11-05T18:42:19.458Z,7.47
2022-11-05T18:47:27.559Z,10.63
2022-11-05T18:52:36.763Z,8.13
2022-11-05T18:57:45.018Z,10.93
2022-11-05T19:02:48.449Z,8.13
2022-11-05T19:07:51.021Z,13.25
2022-11-05T19:12:54.403Z,9.30
2022-11-05T19:17:56.605Z,8.13
2022-11-05T19:23:01.215Z,7.15
2022-11-05T19:28:13.077Z,9.55
2022-11-05T19:33:19.608Z,8.32
2022-11-05T19:38:27.600Z,7.60
2022-11-05T19:43:33.889Z,8.23
2022-11-05T19:48:39.702Z,9.48
2022-11-05T19:53:42.793Z,5.13
2022-11-05T19:59:07.231Z,6.85
2022-11-05T20:04:12.011Z,6.97
2022-11-05T20:09:22.879Z,7.55
2022-11-05T20:19:31.019Z,6.40
2022-11-05T20:24:34.888Z,9.50
2022-11-05T20:29:49.661Z,8.70
2022-11-05T20:34:58.442Z,9.07
2022-11-05T20:40:04.702Z,8.63
2022-11-05T20:45:08.259Z,7.78
2022-11-05T20:50:15.721Z,7.88
2022-11-05T20:55:18.109Z,9.30
2022-11-05T21:00:27.105Z,8.45
2022-11-05T21:05:35.319Z,8.63
2022-11-05T21:10:50.135Z,8.93
2022-11-05T21:16:04.671Z,8.50
2022-11-05T21:21:14.675Z,8.30
2022-11-05T21:26:19.262Z,7.70
2022-11-05T21:31:35.761Z,6.22
2022-11-05T21:36:40.874Z,7.45
2022-11-05T21:41:42.857Z,7.47
2022-11-05T21:52:08.180Z,7.72
2022-11-05T21:57:36.497Z,8.70
2022-11-05T22:02:44.611Z,8.98
2022-11-05T22:07:53.847Z,10.02
2022-11-05T22:12:57.156Z,11.10
2022-11-05T22:18:06.515Z,11.18
2022-11-05T22:23:11.561Z,12.20
2022-11-05T22:28:28.635Z,6.65
2022-11-05T22:33:33.803Z,8.18
2022-11-05T22:38:36.320Z,7.60
2022-11-05T22:43:41.412Z,12.80
2022-11-05T22:48:50.763Z,9.15
2022-11-05T22:54:06.938Z,9.68
2022-11-05T22:59:13.348Z,8.23
2022-11-05T23:04:15.984Z,9.30
2022-11-05T23:09:48.528Z,11.38
2022-11-05T23:15:03.267Z,7.47
2022-11-05T23:20:30.739Z,7.10
2022-11-05T23:25:35.214Z,7.75
2022-11-05T23:31:09.410Z,5.82
2022-11-05T23:36:33.709Z,13.07
2022-11-05T23:41:55.150Z,6.72
2022-11-05T23:47:17.142Z,6.60
2022-11-05T23:52:21.944Z,10.75
2022-11-05T23:57:28.931Z,6.55
